Bei Facebook empfehlenBei Twitter postenGoogle plusPinterest

Das Wetter im Erzgebirge am 03.06.2016

Wetter und Klima am 03.06.2016 Holzhau im Erzgebirge (630m ü.NN)
Letzte gemessene Temperatur und Uhrzeit der Messung23:45:00 Uhr12.40 °C
Temperatur (Maximum / Höchstwert) und Uhrzeit der Messung15:15:00 Uhr19.10 °C
Temperatur (Minimum / Tiefstwert) und Uhrzeit der Messung05:45:0011.90 °C
Errechneter Absolutwert der Temperaturschwankungen zwischen Tmin und Tmax des Tages7.20 K
Errechnete Tagesmitteltemperatur14.39583 °C
Gesamt - Niederschlag des Tages (in flüssiger Form)6.73 Liter / m²
Luftdruck (Maximum / Höchstwert) und Zeitpunkt der Messung23:00:00 Uhr1009.40 hPa
Luftdruck (Minimum / Tiefstwert) und Zeitpunkt der Messung09:00:00 Uhr1007.60 hPa
Errechneter Absolutwert der Luftdruckschwankungen des Tages1.80 hPa
Höchste gemessene Windgeschwindigkeit und Uhrzeit der Messung23:45:00 Uhr0.00 km/h
Errechnete Windhäufigkeit in Relation zu den Messwerten des Tages0.00000 %
Niedrigste Windkühle (Windchill) und Zeitpunkt der Messung05:45:00 Uhr11.90 °C
Taupunkt (Maximum / Höchstwert) und Uhrzeit der Messung14:45:00 Uhr16.40 °C
Taupunkt (Minimum / Tiefstwert) und Uhrzeit der Messung01:45:0010.80 °C
Anzahl der automatisch eingelesenen Messwerte 96

Detaillierte Wetter- und Klima- Messwerte für den 03.06.2016 in Holzhau im Erzgebirge (630m ü.NN)
ZeitTemperaturLuftdruckRel. LuftfeuchteWindWindrichtungWindchillTaupunktNiederschlag l/m²
23:45:0012.40 °C1009.30 hPa93.00 %11.30 °C6.73
23:30:0012.60 °C1009.20 hPa92.00 %11.30 °C6.73
23:15:0012.80 °C1009.10 hPa93.00 %11.70 °C6.73
23:00:0012.80 °C1009.40 hPa92.00 %11.50 °C6.73
22:45:0012.90 °C1009.10 hPa92.00 %11.60 °C6.73
22:30:0013.10 °C1009.10 hPa92.00 %11.80 °C6.73
22:15:0013.20 °C1008.90 hPa91.00 %11.80 °C6.73
22:00:0013.40 °C1008.80 hPa91.00 %12.00 °C6.73
21:45:0013.80 °C1008.90 hPa91.00 %12.40 °C6.73
21:30:0013.90 °C1009.00 hPa90.00 %12.30 °C6.73
21:15:0014.40 °C1009.00 hPa89.00 %12.60 °C6.73
21:00:0014.80 °C1009.00 hPa89.00 %13.00 °C6.73
20:45:0014.90 °C1008.80 hPa88.00 %12.90 °C6.73
20:30:0015.30 °C1008.90 hPa88.00 %13.30 °C6.73
20:15:0015.80 °C1008.90 hPa87.00 %13.60 °C6.73
20:00:0015.90 °C1008.70 hPa87.00 %13.70 °C6.73
19:45:0016.10 °C1008.60 hPa87.00 %13.90 °C6.73
19:30:0016.30 °C1008.60 hPa86.00 %14.00 °C6.73
19:15:0016.40 °C1008.70 hPa86.00 %14.10 °C6.73
19:00:0016.60 °C1008.60 hPa85.00 %14.10 °C6.73
18:45:0016.80 °C1008.40 hPa85.00 %14.30 °C6.73
18:30:0017.10 °C1008.50 hPa84.00 %14.40 °C6.73
18:15:0017.60 °C1008.50 hPa84.00 %14.90 °C6.73
18:00:0017.40 °C1008.50 hPa85.00 %14.90 °C6.73
17:45:0017.00 °C1008.40 hPa85.00 %14.50 °C6.73
17:30:0016.40 °C1008.50 hPa85.00 %13.90 °C6.73
17:15:0016.30 °C1008.80 hPa83.00 %13.40 °C6.73
17:00:0017.30 °C1008.60 hPa82.00 %14.20 °C6.73
16:45:0018.10 °C1008.60 hPa83.00 %15.20 °C6.73
16:30:0017.80 °C1008.60 hPa83.00 %14.90 °C6.73
16:15:0017.70 °C1008.70 hPa83.00 %14.80 °C6.73
16:00:0018.10 °C1008.60 hPa83.00 %15.20 °C6.73
15:45:0018.40 °C1008.40 hPa83.00 %15.50 °C6.73
15:30:0018.30 °C1008.30 hPa83.00 %15.40 °C6.73
15:15:0019.10 °C1008.20 hPa82.00 %16.00 °C6.73
15:00:0018.80 °C1008.30 hPa85.00 %16.20 °C6.73
14:45:0018.60 °C1008.50 hPa87.00 %16.40 °C6.73
14:30:0017.80 °C1008.50 hPa88.00 %15.80 °C6.73
14:15:0017.90 °C1008.50 hPa90.00 %16.20 °C6.73
14:00:0017.40 °C1008.40 hPa91.00 %15.90 °C6.73
13:45:0017.30 °C1008.50 hPa93.00 %16.20 °C6.73
13:30:0016.30 °C1008.60 hPa93.00 %15.20 °C6.73
13:15:0016.20 °C1008.40 hPa93.00 %15.10 °C6.73
13:00:0016.10 °C1008.30 hPa93.00 %15.00 °C6.22
12:45:0015.40 °C1008.00 hPa94.00 %14.40 °C6.22
12:30:0015.70 °C1008.00 hPa93.00 %14.60 °C6.22
12:15:0016.80 °C1007.90 hPa94.00 %15.80 °C5.18
12:00:0015.80 °C1007.80 hPa95.00 %15.00 °C5.18
11:45:0014.90 °C1007.90 hPa94.00 %13.90 °C5.18
11:30:0015.40 °C1007.80 hPa95.00 %14.60 °C5.18
11:15:0015.60 °C1007.80 hPa95.00 %14.80 °C5.18
11:00:0014.70 °C1007.80 hPa95.00 %13.90 °C5.18
10:45:0014.50 °C1007.80 hPa95.00 %13.70 °C5.18
10:30:0014.70 °C1007.80 hPa95.00 %13.90 °C5.18
10:15:0014.40 °C1007.90 hPa96.00 %13.80 °C5.18
10:00:0014.10 °C1007.80 hPa96.00 %13.50 °C5.18
09:45:0013.80 °C1007.80 hPa96.00 %13.20 °C5.18
09:30:0013.50 °C1007.70 hPa95.00 %12.70 °C4.66
09:15:0013.30 °C1007.70 hPa95.00 %12.50 °C4.66
09:00:0013.00 °C1007.60 hPa95.00 %12.20 °C4.66
08:45:0012.80 °C1007.70 hPa95.00 %12.00 °C4.66
08:30:0012.60 °C1007.70 hPa95.00 %11.80 °C4.66
08:15:0012.60 °C1007.60 hPa95.00 %11.80 °C4.66
08:00:0012.60 °C1007.60 hPa95.00 %11.80 °C4.14
07:45:0012.60 °C1007.60 hPa95.00 %11.80 °C4.14
07:30:0012.50 °C1007.60 hPa95.00 %11.70 °C4.14
07:15:0012.60 °C1007.60 hPa95.00 %11.80 °C3.63
07:00:0012.50 °C1007.60 hPa95.00 %11.70 °C3.63
06:45:0012.30 °C1007.70 hPa94.00 %11.40 °C3.63
06:30:0012.10 °C1007.60 hPa94.00 %11.20 °C3.11
06:15:0012.10 °C1007.80 hPa94.00 %11.20 °C3.11
06:00:0012.10 °C1007.70 hPa94.00 %11.20 °C3.11
05:45:0011.90 °C1007.80 hPa94.00 %11.00 °C3.11
05:30:0011.90 °C1007.90 hPa94.00 %11.00 °C2.59
05:15:0011.90 °C1007.80 hPa94.00 %11.00 °C2.59
05:00:0011.90 °C1007.90 hPa94.00 %11.00 °C2.07
04:45:0011.90 °C1007.90 hPa94.00 %11.00 °C1.04
04:30:0011.90 °C1007.90 hPa94.00 %11.00 °C0.52
04:15:0011.90 °C1007.90 hPa94.00 %11.00 °C0.52
04:00:0011.90 °C1007.90 hPa94.00 %11.00 °C0.52
03:45:0011.90 °C1008.00 hPa94.00 %11.00 °C 
03:30:0012.00 °C1008.10 hPa93.00 %10.90 °C 
03:15:0012.10 °C1008.20 hPa93.00 %11.00 °C 
03:00:0012.20 °C1008.40 hPa93.00 %11.10 °C 
02:45:0012.30 °C1008.40 hPa93.00 %11.20 °C 
02:30:0012.30 °C1008.50 hPa93.00 %11.20 °C 
02:15:0012.10 °C1008.70 hPa93.00 %11.00 °C 
02:00:0012.20 °C1008.70 hPa93.00 %11.10 °C 
01:45:0012.10 °C1008.80 hPa92.00 %10.80 °C 
01:30:0012.20 °C1008.80 hPa92.00 %10.90 °C 
01:15:0012.20 °C1008.80 hPa92.00 %10.90 °C 
01:00:0012.10 °C1008.90 hPa92.00 %10.80 °C 
00:45:0012.20 °C1008.90 hPa92.00 %10.90 °C 
00:30:0012.20 °C1009.00 hPa92.00 %10.90 °C 
00:15:0012.20 °C1009.00 hPa92.00 %10.90 °C 
00:00:0012.30 °C1008.90 hPa91.00 %10.90 °C 

Permanenter Link zu dieser Seite: Wetter im Erzgebirge am 03.06.2016
Performance-Info: Die Erstellung der Seite / Statistik(en) / Tabelle(n) erforderte 5 Datenbankserver-Abfrage(n) und dauerte 113 Millisekunden. (Dieser Messwert ist von der Gesamt-Auslastung des Servers abhängig.)
Erzgebirge - Wetter | Erzgebirge - Wetter (Mobilgeräte) | Komplette Klimadatenbank